Limeport, Pennsylvania
Current Conditions -  °F | °C
As of 1:35 PM on Saturday 20 Dec 2014 (Local Time) from KXLL Reporting Station
Overcast Overcast  
Wind Chill: 34°   Ceiling: 3200
Heat Index: 34°   Visibility: 10mi
Dew Point: 23°   Wind: 3mph
Humidity: 65%   Direction: 20°NNE
Pressure: 30.26"   Gusts: NA
Location:  40.51°N, 75.45°W
Report Text: KXLL 201835Z AUTO 02003KT 10SM OVC032 01/M05 A3026 RMK AO2
Loading
Personal Weather Stations






























Interactive Weather Map New forecast layout! Learn more

10-Day Weather Forecast

Advertisements
Track Severe Weather on mobile